createdAt,value
2023-05-20T00:01:22.019Z,13.12
2023-05-20T00:03:50.650Z,13.13
2023-05-20T00:06:18.959Z,13.14
2023-05-20T00:08:47.150Z,13.13
2023-05-20T00:11:15.521Z,13.13
2023-05-20T00:13:43.689Z,13.08
2023-05-20T00:16:11.637Z,13.03
2023-05-20T00:18:39.786Z,13.02
2023-05-20T00:21:08.119Z,13.01
2023-05-20T00:23:36.179Z,12.99
2023-05-20T00:26:04.446Z,12.97
2023-05-20T00:28:32.642Z,12.98
2023-05-20T00:31:01.699Z,12.98
2023-05-20T00:33:29.720Z,12.96
2023-05-20T00:35:58.093Z,12.94
2023-05-20T00:38:26.120Z,12.91
2023-05-20T00:40:56.619Z,12.90
2023-05-20T00:43:26.705Z,12.88
2023-05-20T00:45:55.912Z,12.87
2023-05-20T00:48:24.188Z,12.85
2023-05-20T00:50:52.698Z,12.82
2023-05-20T00:53:21.582Z,12.79
2023-05-20T00:55:49.844Z,12.76
2023-05-20T00:58:18.142Z,12.71
2023-05-20T01:00:46.735Z,12.67
2023-05-20T01:03:16.062Z,12.65
2023-05-20T01:05:44.597Z,12.59
2023-05-20T01:08:12.842Z,12.54
2023-05-20T01:10:48.330Z,12.51
2023-05-20T01:13:21.990Z,12.45
2023-05-20T01:15:54.592Z,12.39
2023-05-20T01:18:25.838Z,12.36
2023-05-20T01:20:55.885Z,12.30
2023-05-20T01:23:24.051Z,12.26
2023-05-20T01:25:52.211Z,12.23
2023-05-20T01:28:21.482Z,12.20
2023-05-20T01:30:56.069Z,12.17
2023-05-20T01:33:25.833Z,12.14
2023-05-20T01:35:54.642Z,12.10
2023-05-20T01:38:26.081Z,12.06
2023-05-20T01:40:55.607Z,12.02
2023-05-20T01:43:26.474Z,11.98
2023-05-20T01:45:54.577Z,11.94
2023-05-20T01:48:22.752Z,11.92
2023-05-20T01:50:53.058Z,11.92
2023-05-20T01:53:21.092Z,11.88
2023-05-20T01:55:49.164Z,11.85
2023-05-20T01:58:17.852Z,11.81
2023-05-20T02:00:47.208Z,11.80
2023-05-20T02:03:15.742Z,11.77
2023-05-20T02:05:44.396Z,11.76
2023-05-20T02:08:12.767Z,11.75
2023-05-20T02:10:41.008Z,11.72
2023-05-20T02:13:09.933Z,11.70
2023-05-20T02:15:42.347Z,11.68
2023-05-20T02:18:12.631Z,11.65
2023-05-20T02:20:41.484Z,11.64
2023-05-20T02:23:09.568Z,11.63
2023-05-20T02:25:38.159Z,11.61
2023-05-20T02:28:10.786Z,11.61
2023-05-20T02:30:39.489Z,11.61
2023-05-20T02:33:09.283Z,11.63
2023-05-20T02:35:38.110Z,11.66
2023-05-20T02:38:06.585Z,11.68
2023-05-20T02:40:34.830Z,11.69
2023-05-20T02:43:03.229Z,11.68
2023-05-20T02:45:31.401Z,11.68
2023-05-20T02:47:59.888Z,11.66
2023-05-20T02:50:28.182Z,11.63
2023-05-20T02:52:56.224Z,11.60
2023-05-20T02:55:24.595Z,11.56
2023-05-20T02:57:52.867Z,11.54
2023-05-20T03:00:24.717Z,11.51
2023-05-20T03:02:52.764Z,11.48
2023-05-20T03:05:21.673Z,11.46
2023-05-20T03:07:50.159Z,11.45
2023-05-20T03:10:18.885Z,11.43
2023-05-20T03:12:46.930Z,11.42
2023-05-20T03:15:16.622Z,11.40
2023-05-20T03:17:44.722Z,11.39
2023-05-20T03:20:16.870Z,11.39
2023-05-20T03:22:44.900Z,11.37
2023-05-20T03:25:13.206Z,11.37
2023-05-20T03:27:43.037Z,11.37
2023-05-20T03:30:11.842Z,11.32
2023-05-20T03:32:40.677Z,11.32
2023-05-20T03:35:10.092Z,11.30
2023-05-20T03:37:40.247Z,11.27
2023-05-20T03:40:13.149Z,11.31
2023-05-20T03:42:42.090Z,11.34
2023-05-20T03:45:11.063Z,11.32
2023-05-20T03:47:45.895Z,11.32
2023-05-20T03:50:14.139Z,11.34
2023-05-20T03:52:42.605Z,11.35
2023-05-20T03:55:10.796Z,11.37
2023-05-20T03:57:39.396Z,11.41
2023-05-20T04:00:12.398Z,11.43
2023-05-20T04:02:44.736Z,11.48
2023-05-20T04:05:14.362Z,11.50
2023-05-20T04:07:43.155Z,11.53
2023-05-20T04:10:11.724Z,11.56
2023-05-20T04:12:39.863Z,11.60
2023-05-20T04:15:09.778Z,11.65
2023-05-20T04:17:48.662Z,11.71
2023-05-20T04:20:17.202Z,11.76
2023-05-20T04:22:46.514Z,11.79
2023-05-20T04:25:14.904Z,11.82
2023-05-20T04:27:43.916Z,11.86
2023-05-20T04:30:13.024Z,11.87
2023-05-20T04:32:42.383Z,11.91
2023-05-20T04:35:14.104Z,11.97
2023-05-20T04:37:48.212Z,12.05
2023-05-20T04:40:17.249Z,12.13
2023-05-20T04:42:45.554Z,12.19
2023-05-20T04:45:13.972Z,12.26
2023-05-20T04:47:44.623Z,12.34
2023-05-20T04:50:16.112Z,12.41
2023-05-20T04:52:46.024Z,12.46
2023-05-20T04:55:15.982Z,12.52
2023-05-20T04:57:44.146Z,12.60
2023-05-20T05:00:13.603Z,12.63
2023-05-20T05:02:42.294Z,12.68
2023-05-20T05:05:10.566Z,12.73
2023-05-20T05:07:39.469Z,12.78
2023-05-20T05:10:08.396Z,12.81
2023-05-20T05:12:36.486Z,12.83
2023-05-20T05:15:05.815Z,12.88
2023-05-20T05:17:38.581Z,12.96
2023-05-20T05:20:08.772Z,13.01
2023-05-20T05:22:37.142Z,13.08
2023-05-20T05:25:06.797Z,13.16
2023-05-20T05:27:35.937Z,13.25
2023-05-20T05:30:06.378Z,13.38
2023-05-20T05:32:35.303Z,13.49
2023-05-20T05:35:05.575Z,13.54
2023-05-20T05:37:34.928Z,13.61
2023-05-20T05:40:03.581Z,13.65
2023-05-20T05:42:31.888Z,13.70
2023-05-20T05:45:01.459Z,13.75
2023-05-20T05:47:32.966Z,13.79
2023-05-20T05:50:01.402Z,13.83
2023-05-20T05:52:31.117Z,13.87
2023-05-20T05:54:59.316Z,13.88
2023-05-20T05:57:27.703Z,13.95
2023-05-20T05:59:56.200Z,14.03
2023-05-20T06:02:25.406Z,14.11
2023-05-20T06:04:54.806Z,14.21
2023-05-20T06:07:23.610Z,14.33
2023-05-20T06:09:52.748Z,14.42
2023-05-20T06:12:21.474Z,14.53
2023-05-20T06:14:49.758Z,14.64
2023-05-20T06:17:18.438Z,14.71
2023-05-20T06:19:47.376Z,14.80
2023-05-20T06:22:15.559Z,14.89
2023-05-20T06:24:43.912Z,15.00
2023-05-20T06:27:13.646Z,15.13
2023-05-20T06:29:43.631Z,15.27
2023-05-20T06:32:12.530Z,15.40
2023-05-20T06:34:41.479Z,15.53
2023-05-20T06:37:09.673Z,15.66
2023-05-20T06:39:38.352Z,15.79
2023-05-20T06:42:06.578Z,15.89
2023-05-20T06:44:37.404Z,15.99
2023-05-20T06:47:21.969Z,16.13
2023-05-20T06:49:52.389Z,16.26
2023-05-20T06:52:20.440Z,16.36
2023-05-20T06:54:49.124Z,16.51
2023-05-20T06:57:19.338Z,16.64
2023-05-20T06:59:47.409Z,16.77
2023-05-20T07:02:16.360Z,16.89
2023-05-20T07:04:44.600Z,17.00
2023-05-20T07:07:13.251Z,17.10
2023-05-20T07:09:43.409Z,17.22
2023-05-20T07:12:11.837Z,17.37
2023-05-20T07:14:40.224Z,17.52
2023-05-20T07:17:08.520Z,17.66
2023-05-20T07:19:37.033Z,17.80
2023-05-20T07:22:05.723Z,17.97
2023-05-20T07:24:47.097Z,18.16
2023-05-20T07:27:15.256Z,18.32
2023-05-20T07:29:43.444Z,18.47
2023-05-20T07:32:11.860Z,18.60
2023-05-20T07:34:40.070Z,18.74
2023-05-20T07:37:10.209Z,18.88
2023-05-20T07:39:38.881Z,19.02
2023-05-20T07:42:07.985Z,19.15
2023-05-20T07:44:37.186Z,19.29
2023-05-20T07:47:06.722Z,19.42
2023-05-20T07:49:35.602Z,19.54
2023-05-20T07:52:04.024Z,19.65
2023-05-20T07:54:32.565Z,19.75
2023-05-20T07:57:03.208Z,19.87
2023-05-20T07:59:31.758Z,20.01
2023-05-20T08:02:00.218Z,20.12
2023-05-20T08:04:28.410Z,20.23
2023-05-20T08:06:56.926Z,20.31
2023-05-20T08:09:40.078Z,20.41
2023-05-20T08:12:08.371Z,20.52
2023-05-20T08:14:36.592Z,20.62
2023-05-20T08:17:04.899Z,20.70
2023-05-20T08:19:33.193Z,20.77
2023-05-20T08:22:01.729Z,20.87
2023-05-20T08:24:29.957Z,20.98
2023-05-20T08:26:58.086Z,21.10
2023-05-20T08:29:26.892Z,21.22
2023-05-20T08:31:55.160Z,21.27
2023-05-20T08:34:23.805Z,21.25
2023-05-20T08:36:52.774Z,21.27
2023-05-20T08:39:21.450Z,21.31
2023-05-20T08:41:49.650Z,21.45
2023-05-20T08:44:22.237Z,21.59
2023-05-20T08:46:52.189Z,21.74
2023-05-20T08:49:21.122Z,21.93
2023-05-20T08:51:49.623Z,22.08
2023-05-20T08:54:20.806Z,22.35
2023-05-20T08:56:49.122Z,22.61
2023-05-20T08:59:19.370Z,22.86
2023-05-20T09:02:01.263Z,23.09
2023-05-20T09:04:31.940Z,23.27
2023-05-20T09:07:00.186Z,23.37
2023-05-20T09:09:29.562Z,23.48
2023-05-20T09:11:57.631Z,23.59
2023-05-20T09:14:27.330Z,23.72
2023-05-20T09:16:55.578Z,23.87
2023-05-20T09:19:24.907Z,24.05
2023-05-20T09:21:55.184Z,24.24
2023-05-20T09:24:24.428Z,24.43
2023-05-20T09:26:53.327Z,24.65
2023-05-20T09:29:21.964Z,24.81
2023-05-20T09:31:51.676Z,24.93
2023-05-20T09:34:21.337Z,25.01
2023-05-20T09:36:51.252Z,25.17
2023-05-20T09:39:26.200Z,25.29
2023-05-20T09:42:12.582Z,25.44
2023-05-20T09:44:41.260Z,25.55
2023-05-20T09:47:10.117Z,25.47
2023-05-20T09:49:39.080Z,25.46
2023-05-20T09:52:08.202Z,25.53
2023-05-20T09:54:36.900Z,25.61
2023-05-20T09:57:06.772Z,25.68
2023-05-20T09:59:37.716Z,25.71
2023-05-20T10:02:07.132Z,25.71
2023-05-20T10:04:38.832Z,25.75
2023-05-20T10:07:13.355Z,25.71
2023-05-20T10:10:13.250Z,25.67
2023-05-20T10:13:10.718Z,25.58
2023-05-20T10:15:53.339Z,25.57
2023-05-20T10:18:59.256Z,25.61
2023-05-20T11:06:54.175Z,24.93
2023-05-20T11:09:23.525Z,25.14
2023-05-20T11:11:55.569Z,25.29
2023-05-20T11:14:23.817Z,25.40
2023-05-20T11:16:54.364Z,25.52
2023-05-20T11:19:22.991Z,25.61
2023-05-20T11:21:51.623Z,25.68
2023-05-20T11:24:26.044Z,25.60
2023-05-20T11:26:56.194Z,25.64
2023-05-20T11:29:26.868Z,25.76
2023-05-20T11:31:55.792Z,25.90
2023-05-20T11:34:26.792Z,25.98
2023-05-20T11:36:57.406Z,26.07
2023-05-20T11:39:27.575Z,26.19
2023-05-20T11:41:59.243Z,26.36
2023-05-20T11:44:27.347Z,26.51
2023-05-20T11:47:01.642Z,26.64
2023-05-20T11:49:31.073Z,26.78
2023-05-20T11:51:59.246Z,26.90
2023-05-20T11:54:27.547Z,27.00
2023-05-20T11:56:56.731Z,27.09
2023-05-20T11:59:25.333Z,27.26
2023-05-20T12:01:53.720Z,27.58
2023-05-20T12:04:21.988Z,27.95
2023-05-20T12:06:50.111Z,28.29
2023-05-20T12:09:18.344Z,28.60
2023-05-20T12:11:46.506Z,28.92
2023-05-20T12:14:14.577Z,29.20
2023-05-20T12:16:42.577Z,29.48
2023-05-20T12:19:10.657Z,29.75
2023-05-20T12:21:38.980Z,29.86
2023-05-20T12:24:08.644Z,29.86
2023-05-20T12:26:36.725Z,29.78
2023-05-20T12:29:04.841Z,29.53
2023-05-20T12:31:34.927Z,28.86
2023-05-20T12:34:03.983Z,27.90
2023-05-20T12:36:32.471Z,26.72
2023-05-20T12:39:00.556Z,25.77
2023-05-20T12:41:28.848Z,24.73
2023-05-20T12:43:57.128Z,23.59
2023-05-20T12:46:25.750Z,22.97
2023-05-20T12:48:53.990Z,22.61
2023-05-20T12:51:22.140Z,22.04
2023-05-20T12:53:50.628Z,21.50
2023-05-20T12:56:19.717Z,21.10
2023-05-20T12:58:49.441Z,20.63
2023-05-20T13:01:17.845Z,20.24
2023-05-20T13:03:47.397Z,19.89
2023-05-20T13:06:15.546Z,19.57
2023-05-20T13:08:43.586Z,19.33
2023-05-20T13:11:11.777Z,18.94
2023-05-20T13:13:39.829Z,18.76
2023-05-20T13:16:08.332Z,18.61
2023-05-20T13:18:36.411Z,18.46
2023-05-20T13:21:04.421Z,18.32
2023-05-20T13:23:32.976Z,18.20
2023-05-20T13:26:01.509Z,18.09
2023-05-20T13:28:29.679Z,18.01
2023-05-20T13:30:57.834Z,17.96
2023-05-20T13:33:26.043Z,17.94
2023-05-20T13:35:54.372Z,17.91
2023-05-20T13:38:26.112Z,17.80
2023-05-20T13:40:54.662Z,17.76
2023-05-20T13:43:22.769Z,17.77
2023-05-20T13:45:50.854Z,17.75
2023-05-20T13:48:18.798Z,17.80
2023-05-20T13:50:46.942Z,17.82
2023-05-20T13:53:15.198Z,17.82
2023-05-20T13:55:43.714Z,17.81
2023-05-20T13:58:11.857Z,17.74
2023-05-20T14:00:39.979Z,17.69
2023-05-20T14:03:10.420Z,17.64
2023-05-20T14:05:38.722Z,17.61
2023-05-20T14:08:07.033Z,17.57
2023-05-20T14:10:35.601Z,17.55
2023-05-20T14:13:04.182Z,17.55
2023-05-20T14:15:32.291Z,17.55
2023-05-20T14:18:00.515Z,17.61
2023-05-20T14:20:28.773Z,17.72
2023-05-20T14:22:56.950Z,17.85
2023-05-20T14:25:25.078Z,18.00
2023-05-20T14:27:53.261Z,18.14
2023-05-20T14:30:21.426Z,18.32
2023-05-20T14:32:49.586Z,18.47
2023-05-20T14:35:18.623Z,18.64
2023-05-20T14:37:47.085Z,18.81
2023-05-20T14:40:15.599Z,18.98
2023-05-20T14:42:43.761Z,19.17
2023-05-20T14:45:12.182Z,19.34
2023-05-20T14:47:40.529Z,19.47
2023-05-20T14:50:09.371Z,19.34
2023-05-20T14:52:37.630Z,19.18
2023-05-20T14:55:06.151Z,19.19
2023-05-20T14:57:34.349Z,19.10
2023-05-20T15:00:02.866Z,19.12
2023-05-20T15:02:31.172Z,19.07
2023-05-20T15:04:59.853Z,18.97
2023-05-20T15:07:28.377Z,19.00
2023-05-20T15:09:56.861Z,18.95
2023-05-20T15:12:28.156Z,19.11
2023-05-20T15:14:56.838Z,19.17
2023-05-20T15:17:25.016Z,19.23
2023-05-20T15:19:53.387Z,19.27
2023-05-20T15:22:21.559Z,19.24
2023-05-20T15:24:49.961Z,19.24
2023-05-20T15:27:18.227Z,19.34
2023-05-20T15:29:46.478Z,20.11
2023-05-20T15:32:15.264Z,20.42
2023-05-20T15:34:43.363Z,20.19
2023-05-20T15:37:11.955Z,20.01
2023-05-20T15:39:40.316Z,20.10
2023-05-20T15:42:14.133Z,21.17
2023-05-20T15:44:42.229Z,22.49
2023-05-20T15:47:10.873Z,23.47
2023-05-20T15:49:39.470Z,24.11
2023-05-20T15:52:07.720Z,24.33
2023-05-20T15:54:35.765Z,24.60
2023-05-20T15:57:04.104Z,25.12
2023-05-20T15:59:32.148Z,25.76
2023-05-20T16:02:00.902Z,26.34
2023-05-20T16:04:29.480Z,26.81
2023-05-20T16:06:58.147Z,27.11
2023-05-20T16:09:26.450Z,27.32
2023-05-20T16:11:54.993Z,27.54
2023-05-20T16:14:23.095Z,27.63
2023-05-20T16:16:51.373Z,27.46
2023-05-20T16:19:19.690Z,27.73
2023-05-20T16:21:47.998Z,27.73
2023-05-20T16:24:16.210Z,27.80
2023-05-20T16:26:44.560Z,27.79
2023-05-20T16:29:15.689Z,27.73
2023-05-20T16:31:47.203Z,27.55
2023-05-20T16:34:16.802Z,27.36
2023-05-20T16:36:46.396Z,27.14
2023-05-20T16:39:15.303Z,26.96
2023-05-20T16:41:44.049Z,26.49
2023-05-20T16:44:12.241Z,26.44
2023-05-20T16:46:40.725Z,26.56
2023-05-20T16:49:08.698Z,26.49
2023-05-20T16:51:37.231Z,26.55
2023-05-20T16:54:05.356Z,26.72
2023-05-20T16:56:35.713Z,26.74
2023-05-20T16:59:03.834Z,26.71
2023-05-20T17:01:32.199Z,26.76
2023-05-20T17:04:00.658Z,26.76
2023-05-20T17:06:29.025Z,26.83
2023-05-20T17:08:57.185Z,26.83
2023-05-20T17:11:26.164Z,26.58
2023-05-20T17:13:54.318Z,26.48
2023-05-20T17:16:22.663Z,26.35
2023-05-20T17:18:51.286Z,26.28
2023-05-20T17:21:22.593Z,26.25
2023-05-20T17:23:50.823Z,26.13
2023-05-20T17:26:19.121Z,25.95
2023-05-20T17:28:47.169Z,25.72
2023-05-20T17:31:15.588Z,25.49
2023-05-20T17:33:44.232Z,25.27
2023-05-20T17:36:13.921Z,25.04
2023-05-20T17:38:42.256Z,24.71
2023-05-20T17:41:10.646Z,24.21
2023-05-20T17:43:38.720Z,23.92
2023-05-20T17:46:06.925Z,23.59
2023-05-20T17:48:35.018Z,23.20
2023-05-20T17:51:03.221Z,22.82
2023-05-20T17:53:31.422Z,22.47
2023-05-20T17:55:59.681Z,22.14
2023-05-20T17:58:27.753Z,21.82
2023-05-20T18:00:56.202Z,21.54
2023-05-20T18:03:25.714Z,21.26
2023-05-20T18:05:55.814Z,21.03
2023-05-20T18:08:25.623Z,20.82
2023-05-20T18:10:53.671Z,20.60
2023-05-20T18:13:21.858Z,20.41
2023-05-20T18:15:50.425Z,20.24
2023-05-20T18:18:19.359Z,20.05
2023-05-20T18:20:47.495Z,19.84
2023-05-20T18:23:16.163Z,19.62
2023-05-20T18:25:44.479Z,19.43
2023-05-20T18:28:13.362Z,19.23
2023-05-20T18:30:41.416Z,19.03
2023-05-20T18:33:09.609Z,18.85
2023-05-20T18:35:39.401Z,18.70
2023-05-20T18:38:07.801Z,18.57
2023-05-20T18:40:36.336Z,18.45
2023-05-20T18:43:05.203Z,18.32
2023-05-20T18:45:33.457Z,18.20
2023-05-20T18:48:01.889Z,18.09
2023-05-20T18:50:29.984Z,17.99
2023-05-20T18:52:58.264Z,17.88
2023-05-20T18:55:26.433Z,17.75
2023-05-20T18:57:54.659Z,17.64
2023-05-20T19:00:23.220Z,17.54
2023-05-20T19:02:51.654Z,17.45
2023-05-20T19:05:20.272Z,17.36
2023-05-20T19:07:48.396Z,17.25
2023-05-20T19:10:16.717Z,17.14
2023-05-20T19:12:44.891Z,17.03
2023-05-20T19:15:12.982Z,16.93
2023-05-20T19:17:41.226Z,16.81
2023-05-20T19:20:10.627Z,16.72
2023-05-20T19:22:39.377Z,16.63
2023-05-20T19:25:07.834Z,16.54
2023-05-20T19:27:36.291Z,16.45
2023-05-20T19:30:04.921Z,16.37
2023-05-20T19:32:33.363Z,16.28
2023-05-20T19:35:01.777Z,16.21
2023-05-20T19:37:31.506Z,16.13
2023-05-20T19:39:59.659Z,16.06
2023-05-20T19:42:27.712Z,16.00
2023-05-20T19:44:56.402Z,15.95
2023-05-20T19:47:24.607Z,15.90
2023-05-20T19:49:52.669Z,15.84
2023-05-20T19:52:22.997Z,15.77
2023-05-20T19:54:51.358Z,15.72
2023-05-20T19:57:19.449Z,15.67
2023-05-20T19:59:47.522Z,15.63
2023-05-20T20:02:16.005Z,15.60
2023-05-20T20:04:44.242Z,15.57
2023-05-20T20:07:12.455Z,15.54
2023-05-20T20:09:40.852Z,15.51
2023-05-20T20:12:09.328Z,15.48
2023-05-20T20:14:38.204Z,15.46
2023-05-20T20:17:06.455Z,15.42
2023-05-20T20:19:34.897Z,15.37
2023-05-20T20:22:03.150Z,15.33
2023-05-20T20:24:31.543Z,15.29
2023-05-20T20:27:00.004Z,15.24
2023-05-20T20:29:28.093Z,15.20
2023-05-20T20:31:56.710Z,15.13
2023-05-20T20:34:26.560Z,15.08
2023-05-20T20:36:55.091Z,15.03
2023-05-20T20:39:25.224Z,14.97
2023-05-20T20:41:54.718Z,14.92
2023-05-20T20:44:22.899Z,14.88
2023-05-20T20:46:52.054Z,14.83
2023-05-20T20:49:22.203Z,14.78
2023-05-20T20:51:51.002Z,14.75
2023-05-20T20:54:20.044Z,14.76
2023-05-20T20:56:50.120Z,14.77
2023-05-20T20:59:18.782Z,14.77
2023-05-20T21:01:46.774Z,14.76
2023-05-20T21:04:14.919Z,14.75
2023-05-20T21:06:46.008Z,14.72
2023-05-20T21:09:15.158Z,14.70
2023-05-20T21:11:45.474Z,14.67
2023-05-20T21:14:13.492Z,14.66
2023-05-20T21:16:43.053Z,14.66
2023-05-20T21:19:11.430Z,14.62
2023-05-20T21:21:39.532Z,14.58
2023-05-20T21:24:07.744Z,14.55
2023-05-20T21:26:35.906Z,14.53
2023-05-20T21:29:04.058Z,14.53
2023-05-20T21:31:32.104Z,14.50
2023-05-20T21:34:00.341Z,14.48
2023-05-20T21:36:28.461Z,14.46
2023-05-20T21:38:56.859Z,14.41
2023-05-20T21:41:24.909Z,14.37
2023-05-20T21:43:53.400Z,14.37
2023-05-20T21:46:21.476Z,14.36
2023-05-20T21:48:49.598Z,14.35
2023-05-20T21:51:17.738Z,14.33
2023-05-20T21:53:46.022Z,14.32
2023-05-20T21:56:14.116Z,14.28
2023-05-20T21:58:42.325Z,14.23
2023-05-20T22:01:10.560Z,14.15
2023-05-20T22:03:40.302Z,14.10
2023-05-20T22:06:09.370Z,14.05
2023-05-20T22:08:37.363Z,13.99
2023-05-20T22:11:08.226Z,13.95
2023-05-20T22:13:36.301Z,13.91
2023-05-20T22:16:05.341Z,13.90
2023-05-20T22:18:34.010Z,13.86
2023-05-20T22:21:02.127Z,13.82
2023-05-20T22:23:30.288Z,13.79
2023-05-20T22:25:58.372Z,13.74
2023-05-20T22:28:26.530Z,13.72
2023-05-20T22:30:54.908Z,13.71
2023-05-20T22:33:26.986Z,13.69
2023-05-20T22:35:55.164Z,13.66
2023-05-20T22:38:23.946Z,13.65
2023-05-20T22:40:52.402Z,13.63
2023-05-20T22:43:23.856Z,13.58
2023-05-20T22:45:52.279Z,13.55
2023-05-20T22:48:23.286Z,13.52
2023-05-20T22:50:52.137Z,13.50
2023-05-20T22:53:21.172Z,13.48
2023-05-20T22:55:49.454Z,13.46
2023-05-20T22:58:17.569Z,13.45
2023-05-20T23:00:45.849Z,13.43
2023-05-20T23:03:14.434Z,13.44
2023-05-20T23:05:42.500Z,13.43
2023-05-20T23:08:10.644Z,13.42
2023-05-20T23:10:38.765Z,13.42
2023-05-20T23:13:06.889Z,13.41
2023-05-20T23:15:35.051Z,13.40
2023-05-20T23:18:03.558Z,13.39
2023-05-20T23:20:31.744Z,13.38
2023-05-20T23:23:05.597Z,13.36
2023-05-20T23:25:39.453Z,13.34
2023-05-20T23:28:08.057Z,13.31
2023-05-20T23:30:36.559Z,13.27
2023-05-20T23:33:04.991Z,13.24
2023-05-20T23:35:33.217Z,13.21
2023-05-20T23:38:01.506Z,13.18
2023-05-20T23:40:29.670Z,13.16
2023-05-20T23:42:58.032Z,13.12
2023-05-20T23:45:26.120Z,13.12
2023-05-20T23:47:55.554Z,13.14
2023-05-20T23:50:23.786Z,13.16
2023-05-20T23:52:52.424Z,13.17
2023-05-20T23:55:20.989Z,13.18
2023-05-20T23:57:50.110Z,13.18
